Time;durP1;ratioP1;P1;durP2;ratioP2;P2;SDS_P1;SDS_P2;PMS_P1;PMS_P2;Temp;Humidity;BMP_temperature;BMP_pressure;BME280_temperature;BME280_humidity;BME280_pressure;Samples;Min_cycle;Max_cycle;Signal;HPM_P1;HPM_P2
2021/10/30 00:02:20;;;;;;;42.78;23.33;;;;;;;7.49;71.43;100665.00;5050722;28;20045;-36
2021/10/30 00:04:45;;;;;;;46.63;25.80;;;;;;;7.38;71.57;100666.94;5050696;28;20028;-37
2021/10/30 00:07:14;;;;;;;48.17;27.25;;;;;;;7.39;71.58;100662.50;5050386;28;20086;-36
2021/10/30 00:09:40;;;;;;;47.20;27.10;;;;;;;7.60;70.72;100668.19;5050590;28;20040;-36
2021/10/30 00:12:07;;;;;;;49.63;28.13;;;;;;;7.61;71.24;100674.28;5049554;28;20031;-37
2021/10/30 00:14:32;;;;;;;49.53;27.52;;;;;;;7.51;71.71;100668.31;5050515;28;20024;-37
2021/10/30 00:16:58;;;;;;;57.20;29.75;;;;;;;7.31;71.41;100671.22;5050333;28;20493;-37
2021/10/30 00:19:23;;;;;;;51.42;29.23;;;;;;;7.36;71.29;100681.34;5050424;28;20090;-36
2021/10/30 00:21:52;;;;;;;49.67;29.40;;;;;;;7.37;71.35;100677.72;5050365;28;20083;-36
2021/10/30 00:24:18;;;;;;;52.42;28.58;;;;;;;7.68;71.07;100670.00;5050367;28;20126;-36
2021/10/30 00:26:43;;;;;;;54.40;29.63;;;;;;;7.71;70.80;100676.78;5050366;28;20504;-36
2021/10/30 00:29:09;;;;;;;51.03;27.20;;;;;;;7.43;71.70;100675.25;5049981;28;20060;-37
2021/10/30 00:31:35;;;;;;;52.65;28.35;;;;;;;7.51;71.38;100678.91;5049736;28;20037;-36
2021/10/30 00:34:00;;;;;;;47.92;27.63;;;;;;;7.61;71.03;100676.94;5050144;28;20123;-37
2021/10/30 00:36:25;;;;;;;48.40;27.73;;;;;;;7.58;70.92;100667.50;5048887;28;20086;-37
2021/10/30 00:38:51;;;;;;;47.20;27.75;;;;;;;7.63;70.88;100661.72;5050512;28;20024;-37
2021/10/30 00:41:18;;;;;;;52.42;27.63;;;;;;;7.47;71.42;100659.03;5050375;28;20052;-37
2021/10/30 00:43:44;;;;;;;44.22;25.33;;;;;;;7.53;70.80;100656.56;5050250;28;20032;-36
2021/10/30 00:46:09;;;;;;;40.17;23.83;;;;;;;7.58;70.30;100656.09;5050030;28;20036;-37
2021/10/30 00:48:35;;;;;;;42.03;24.52;;;;;;;7.64;70.36;100652.78;5049993;28;20033;-36
2021/10/30 00:51:01;;;;;;;41.28;24.13;;;;;;;7.39;70.60;100650.06;5047918;28;20194;-37
2021/10/30 00:53:29;;;;;;;38.65;22.60;;;;;;;7.40;70.70;100657.00;5048753;28;20048;-37
2021/10/30 00:55:56;;;;;;;40.75;21.75;;;;;;;7.31;70.84;100642.09;5049809;28;20485;-36
2021/10/30 00:58:22;;;;;;;32.97;19.77;;;;;;;7.29;70.18;100636.16;5048980;28;20033;-37
2021/10/30 01:00:49;;;;;;;32.65;19.25;;;;;;;7.57;69.18;100655.25;5048780;28;20449;-37
2021/10/30 01:03:15;;;;;;;33.53;20.20;;;;;;;7.66;68.82;100655.28;5047345;28;20056;-37
2021/10/30 01:05:41;;;;;;;32.53;18.02;;;;;;;7.55;68.76;100646.63;5049724;28;20056;-37
2021/10/30 01:08:07;;;;;;;29.13;18.00;;;;;;;7.68;68.24;100654.13;5048665;28;20032;-36
2021/10/30 01:10:33;;;;;;;31.83;18.35;;;;;;;7.69;68.33;100657.59;5049887;28;20032;-37
2021/10/30 01:12:58;;;;;;;31.25;18.52;;;;;;;7.58;68.54;100642.84;5049934;28;20433;-37
2021/10/30 01:15:24;;;;;;;29.42;18.52;;;;;;;7.77;68.08;100650.50;5049521;28;20025;-36
2021/10/30 01:17:49;;;;;;;29.00;17.63;;;;;;;7.76;67.69;100642.69;5049438;28;20039;-37
2021/10/30 01:20:21;;;;;;;28.30;17.08;;;;;;;7.91;67.00;100648.19;5049565;28;20032;-37
2021/10/30 01:22:47;;;;;;;31.48;17.58;;;;;;;7.88;66.67;100641.41;5049811;28;20025;-37
2021/10/30 01:25:12;;;;;;;28.10;16.38;;;;;;;7.81;67.44;100641.22;5049840;28;20512;-37
2021/10/30 01:27:38;;;;;;;28.80;17.45;;;;;;;8.08;65.92;100636.59;5049762;28;20485;-37
2021/10/30 01:30:04;;;;;;;26.95;16.88;;;;;;;7.98;66.74;100638.59;5031553;28;20029;-37
2021/10/30 01:32:29;;;;;;;30.30;16.98;;;;;;;7.78;67.65;100630.94;5049650;28;20026;-37
2021/10/30 01:34:55;;;;;;;27.67;16.17;;;;;;;7.93;67.02;100640.91;5049569;28;20056;-36
2021/10/30 01:37:20;;;;;;;26.15;16.77;;;;;;;7.95;67.31;100637.09;5049582;28;20052;-37
2021/10/30 01:39:46;;;;;;;27.40;15.93;;;;;;;8.32;66.24;100635.78;5049652;28;20041;-37
2021/10/30 01:42:11;;;;;;;25.13;15.65;;;;;;;8.08;66.51;100636.59;5049531;28;20025;-37
2021/10/30 01:44:36;;;;;;;24.70;14.90;;;;;;;8.10;66.64;100631.97;5053437;28;20036;-37
2021/10/30 01:47:02;;;;;;;29.05;15.60;;;;;;;8.20;66.30;100634.44;5053385;28;20021;-37
2021/10/30 01:49:28;;;;;;;28.33;15.63;;;;;;;8.37;65.11;100632.63;5053485;28;20040;-36
2021/10/30 01:51:54;;;;;;;26.67;14.90;;;;;;;8.34;65.16;100632.94;5053387;28;20350;-37
2021/10/30 01:54:19;;;;;;;25.10;14.20;;;;;;;8.32;64.98;100633.13;5053568;28;20033;-37
2021/10/30 01:56:45;;;;;;;22.95;13.85;;;;;;;8.48;64.47;100634.16;5053329;28;20044;-37
2021/10/30 01:59:10;;;;;;;27.02;14.18;;;;;;;8.33;63.83;100633.97;5053480;28;20036;-37
2021/10/30 02:01:36;;;;;;;24.00;13.60;;;;;;;8.26;64.32;100635.59;5053153;28;20021;-37
2021/10/30 02:04:01;;;;;;;24.00;13.75;;;;;;;8.18;64.66;100626.66;5053068;28;20017;-36
2021/10/30 02:06:27;;;;;;;20.77;13.60;;;;;;;8.08;65.32;100626.00;5053230;28;20433;-37
2021/10/30 02:08:53;;;;;;;22.08;12.73;;;;;;;8.14;64.87;100628.00;5053144;28;20459;-37
2021/10/30 02:11:18;;;;;;;20.42;13.32;;;;;;;8.35;64.31;100627.47;5053163;28;20029;-37
2021/10/30 02:13:44;;;;;;;24.23;14.07;;;;;;;8.21;64.81;100633.47;5053046;28;20025;-37
2021/10/30 02:16:10;;;;;;;26.05;12.82;;;;;;;8.21;65.50;100626.34;5053029;28;20370;-37
2021/10/30 02:18:36;;;;;;;22.65;13.02;;;;;;;7.95;65.31;100589.38;5052941;28;20033;-37
2021/10/30 02:21:01;;;;;;;20.80;13.13;;;;;;;8.21;65.36;100623.69;5052829;28;20033;-37
2021/10/30 02:23:27;;;;;;;19.77;12.27;;;;;;;8.23;64.95;100624.34;5052235;28;20028;-36
2021/10/30 02:25:52;;;;;;;23.00;12.23;;;;;;;8.12;65.36;100621.19;5052753;28;20025;-37
2021/10/30 02:28:18;;;;;;;22.23;12.93;;;;;;;8.26;64.85;100619.69;5052567;28;20468;-37
2021/10/30 02:30:43;;;;;;;24.17;12.55;;;;;;;8.15;64.80;100616.41;5052745;28;20021;-37
2021/10/30 02:33:09;;;;;;;23.33;12.60;;;;;;;8.14;64.96;100622.69;5052556;28;20037;-36
2021/10/30 02:35:34;;;;;;;20.38;12.38;;;;;;;8.25;64.66;100618.88;5051554;28;20452;-37
2021/10/30 02:38:00;;;;;;;19.95;12.20;;;;;;;8.35;64.22;100626.66;5052176;28;20100;-37
2021/10/30 02:40:25;;;;;;;20.75;12.73;;;;;;;8.37;64.08;100628.13;5051979;28;20380;-37
2021/10/30 02:42:51;;;;;;;21.10;11.85;;;;;;;8.31;63.98;100628.81;5052370;28;20017;-37
2021/10/30 02:45:17;;;;;;;21.27;12.50;;;;;;;8.21;64.59;100629.00;5052397;28;20024;-36
2021/10/30 02:47:42;;;;;;;20.77;13.07;;;;;;;8.33;64.45;100634.78;5033991;28;20056;-37
2021/10/30 02:50:08;;;;;;;20.35;12.55;;;;;;;8.46;64.23;100639.63;5052266;28;20104;-37
2021/10/30 02:52:33;;;;;;;21.48;12.77;;;;;;;8.56;64.18;100642.06;5052224;28;20025;-37
2021/10/30 02:54:59;;;;;;;26.50;12.88;;;;;;;8.41;64.38;100649.84;5051509;28;20029;-37
2021/10/30 02:57:25;;;;;;;21.60;13.20;;;;;;;8.32;65.19;100640.25;5051754;28;20017;-37
2021/10/30 02:59:51;;;;;;;24.75;12.82;;;;;;;8.35;65.20;100639.91;5051655;28;20032;-37
2021/10/30 03:02:17;;;;;;;23.52;13.75;;;;;;;8.27;64.96;100640.75;5051819;28;20028;-37
2021/10/30 03:04:43;;;;;;;45.35;23.83;;;;;;;8.52;63.84;100649.53;5051846;28;20448;-37
2021/10/30 03:07:09;;;;;;;43.92;22.73;;;;;;;8.56;63.83;100650.84;5051594;28;20036;-37
2021/10/30 03:09:35;;;;;;;20.50;12.35;;;;;;;8.61;62.87;100642.41;5051435;28;20017;-38
2021/10/30 03:12:00;;;;;;;65.32;30.40;;;;;;;8.47;62.98;100648.38;5051634;28;20036;-37
2021/10/30 03:14:26;;;;;;;55.08;23.75;;;;;;;8.45;63.05;100650.38;5051430;28;20033;-37
2021/10/30 03:16:51;;;;;;;15.48;8.88;;;;;;;8.45;62.93;100647.72;5051484;28;20029;-37
2021/10/30 03:19:17;;;;;;;13.75;8.48;;;;;;;8.53;62.26;100645.06;5051779;28;20073;-37
2021/10/30 03:21:42;;;;;;;14.27;8.55;;;;;;;8.36;62.47;100639.75;5051828;28;20021;-37
2021/10/30 03:24:08;;;;;;;16.58;8.20;;;;;;;8.49;62.38;100643.75;5052143;28;20032;-37
2021/10/30 03:26:33;;;;;;;14.85;8.57;;;;;;;8.74;61.01;100660.47;5052613;28;20028;-37
2021/10/30 03:28:58;;;;;;;16.50;8.98;;;;;;;8.85;60.98;100656.63;5052481;28;20064;-37
2021/10/30 03:31:24;;;;;;;15.55;8.05;;;;;;;8.90;60.39;100660.41;5052224;28;20033;-37
2021/10/30 03:33:49;;;;;;;13.43;8.13;;;;;;;8.88;60.59;100654.44;5051598;28;20377;-37
2021/10/30 03:36:15;;;;;;;14.38;8.27;;;;;;;8.91;60.49;100661.25;5051950;28;20033;-37
2021/10/30 03:38:41;;;;;;;13.30;8.35;;;;;;;8.81;60.85;100656.13;5052205;28;20170;-38
2021/10/30 03:41:06;;;;;;;13.40;7.38;;;;;;;8.70;61.47;100654.66;5052286;28;20033;-37
2021/10/30 03:43:32;;;;;;;12.63;8.15;;;;;;;8.74;61.67;100645.38;5051843;28;20036;-36
2021/10/30 03:45:57;;;;;;;14.15;7.90;;;;;;;8.61;62.29;100645.06;5051481;28;20064;-36
2021/10/30 03:48:23;;;;;;;12.32;7.70;;;;;;;8.38;63.05;100636.94;5051923;28;20054;-37
2021/10/30 03:50:51;;;;;;;11.65;8.23;;;;;;;8.44;62.69;100644.25;5052002;28;20032;-37
2021/10/30 03:53:17;;;;;;;14.30;8.20;;;;;;;8.68;62.31;100645.19;5051572;28;20197;-37
2021/10/30 03:55:43;;;;;;;18.52;8.10;;;;;;;8.77;61.48;100646.84;5051636;28;20100;-37
2021/10/30 03:58:08;;;;;;;13.85;8.15;;;;;;;8.78;61.73;100638.72;5051547;28;20094;-37
2021/10/30 04:00:34;;;;;;;13.48;7.68;;;;;;;8.64;61.90;100643.88;5051319;28;20035;-37
2021/10/30 04:03:00;;;;;;;13.63;7.95;;;;;;;8.77;61.53;100645.00;5050405;28;20031;-35
2021/10/30 04:05:25;;;;;;;12.65;7.57;;;;;;;8.67;61.78;100638.25;5050743;28;20029;-37
2021/10/30 04:07:50;;;;;;;10.68;7.45;;;;;;;8.59;61.78;100639.91;5051465;28;20504;-36
2021/10/30 04:10:16;;;;;;;12.38;8.18;;;;;;;8.70;61.24;100640.56;5051793;28;20025;-38
2021/10/30 04:12:41;;;;;;;13.90;8.23;;;;;;;8.76;61.21;100637.25;5051137;28;20021;-37
2021/10/30 04:15:07;;;;;;;12.80;7.85;;;;;;;8.63;61.77;100635.09;5051270;28;20452;-37
2021/10/30 04:17:33;;;;;;;14.50;8.65;;;;;;;8.36;62.81;100623.03;5051050;28;20505;-38
2021/10/30 04:19:58;;;;;;;15.30;8.30;;;;;;;8.43;62.43;100631.16;5051028;28;20021;-37
2021/10/30 04:22:24;;;;;;;13.00;8.68;;;;;;;8.55;62.19;100633.31;5051348;28;20032;-36
2021/10/30 04:24:49;;;;;;;70.43;33.08;;;;;;;8.66;61.74;100634.75;5051289;28;20477;-37
2021/10/30 04:27:15;;;;;;;14.60;9.23;;;;;;;8.45;62.72;100634.47;5050748;28;20025;-37
2021/10/30 04:29:40;;;;;;;14.88;9.02;;;;;;;8.55;62.12;100641.25;5050903;28;20027;-37
2021/10/30 04:32:07;;;;;;;14.52;8.38;;;;;;;8.51;62.53;100645.25;5050855;28;20039;-37
2021/10/30 04:34:45;;;;;;;14.73;9.05;;;;;;;8.55;62.12;100641.25;5050533;28;20060;-36
2021/10/30 04:37:16;;;;;;;14.38;8.52;;;;;;;8.47;61.97;100643.09;5050710;28;20484;-37
2021/10/30 04:39:46;;;;;;;12.50;8.13;;;;;;;8.54;62.39;100634.28;5049484;28;20108;-37
2021/10/30 04:42:12;;;;;;;15.15;8.30;;;;;;;8.43;62.22;100634.63;5050655;28;20449;-37
2021/10/30 04:44:37;;;;;;;16.05;7.93;;;;;;;8.49;62.46;100633.97;5050449;28;20036;-37
2021/10/30 04:47:03;;;;;;;14.15;8.75;;;;;;;8.64;62.02;100634.09;5050450;28;20040;-37
2021/10/30 04:49:29;;;;;;;13.18;8.25;;;;;;;8.71;61.46;100639.56;5050181;28;20017;-37
2021/10/30 04:51:54;;;;;;;12.77;7.80;;;;;;;8.44;62.14;100638.13;5050353;28;20024;-37
2021/10/30 04:54:20;;;;;;;18.13;8.50;;;;;;;8.71;61.33;100637.75;5049205;28;20029;-37
2021/10/30 04:56:45;;;;;;;12.30;8.10;;;;;;;8.78;61.20;100641.38;5050834;28;20381;-37
2021/10/30 04:59:11;;;;;;;13.80;8.48;;;;;;;8.64;61.94;100636.75;5050312;28;20025;-37
2021/10/30 05:01:36;;;;;;;13.50;8.35;;;;;;;9.04;61.26;100650.09;5050143;28;20032;-37
2021/10/30 05:04:02;;;;;;;13.25;8.65;;;;;;;8.87;61.57;100655.47;5050545;28;20020;-37
2021/10/30 05:06:27;;;;;;;13.18;8.85;;;;;;;8.95;61.17;100658.09;5050017;28;20032;-37
2021/10/30 05:08:52;;;;;;;12.82;8.77;;;;;;;8.83;61.41;100650.66;5050017;28;20401;-37
2021/10/30 05:11:18;;;;;;;13.23;8.52;;;;;;;8.88;60.98;100656.28;5049995;28;20044;-37
2021/10/30 05:13:43;;;;;;;15.15;8.70;;;;;;;8.92;61.46;100647.81;5049614;28;20032;-37
2021/10/30 05:16:09;;;;;;;15.57;9.38;;;;;;;8.89;61.94;100656.13;5049852;28;20029;-37
2021/10/30 05:18:34;;;;;;;15.27;9.20;;;;;;;8.78;61.92;100630.75;5048930;28;20094;-47
2021/10/30 05:21:00;;;;;;;16.55;10.15;;;;;;;8.90;62.11;100663.06;5049442;28;20025;-38
2021/10/30 05:23:25;;;;;;;18.70;9.77;;;;;;;8.87;62.09;100662.56;5049807;28;20452;-38
2021/10/30 05:25:51;;;;;;;15.85;9.63;;;;;;;8.74;62.44;100668.44;5049436;28;20025;-38
2021/10/30 05:28:22;;;;;;;16.30;9.35;;;;;;;8.60;63.22;100656.66;5049324;28;20025;-38
2021/10/30 05:30:50;;;;;;;17.73;9.75;;;;;;;8.63;63.53;100658.16;5049657;28;20033;-38
2021/10/30 05:33:16;;;;;;;18.67;9.95;;;;;;;8.89;62.67;100652.63;5049014;28;20578;-38
2021/10/30 05:35:42;;;;;;;16.17;9.98;;;;;;;8.63;63.39;100616.53;5049387;28;20032;-38
2021/10/30 05:38:07;;;;;;;18.73;10.60;;;;;;;9.05;62.71;100652.59;5049413;28;20029;-37
2021/10/30 05:40:36;;;;;;;15.75;10.40;;;;;;;9.03;63.03;100657.22;5049107;28;20036;-38
2021/10/30 05:43:01;;;;;;;20.42;11.18;;;;;;;9.29;62.51;100662.28;5049080;28;20044;-38
2021/10/30 05:45:27;;;;;;;45.10;25.70;;;;;;;9.48;62.03;100662.84;5048751;28;20052;-37
2021/10/30 05:47:52;;;;;;;68.32;32.55;;;;;;;9.35;62.04;100664.25;5048521;28;20062;-37
2021/10/30 05:50:18;;;;;;;25.45;11.93;;;;;;;9.47;62.20;100677.16;5048668;28;20025;-37
2021/10/30 05:52:43;;;;;;;22.30;11.18;;;;;;;9.43;61.95;100660.72;5048606;28;20401;-38
2021/10/30 05:55:09;;;;;;;17.45;10.45;;;;;;;9.29;62.51;100672.91;5048801;28;20044;-37
2021/10/30 05:57:35;;;;;;;17.90;10.57;;;;;;;9.18;63.03;100682.06;5048617;28;20025;-37
2021/10/30 06:00:00;;;;;;;19.85;10.23;;;;;;;9.34;62.10;100683.81;5048027;28;20389;-37
2021/10/30 06:02:25;;;;;;;18.42;10.50;;;;;;;9.32;62.09;100685.00;5047934;28;20029;-37
2021/10/30 06:04:53;;;;;;;16.88;10.60;;;;;;;9.52;62.18;100667.66;5047622;28;20037;-38
2021/10/30 06:07:18;;;;;;;19.63;10.90;;;;;;;9.37;64.01;100683.50;5048640;28;20044;-37
2021/10/30 06:09:44;;;;;;;22.60;11.32;;;;;;;9.34;65.08;100683.00;5047951;28;20029;-37
2021/10/30 06:12:10;;;;;;;19.15;11.45;;;;;;;9.27;64.76;100680.22;5048092;28;20061;-37
2021/10/30 06:14:35;;;;;;;75.80;41.75;;;;;;;9.44;64.10;100686.28;5046091;28;20029;-37
2021/10/30 06:17:01;;;;;;;72.60;39.53;;;;;;;9.55;63.64;100683.25;5048159;28;20637;-37
2021/10/30 06:19:26;;;;;;;17.15;10.80;;;;;;;9.78;63.58;100685.94;5048243;28;20029;-37
2021/10/30 06:21:52;;;;;;;18.88;10.40;;;;;;;10.08;63.36;100677.28;5048335;28;20430;-38
2021/10/30 06:24:18;;;;;;;19.13;10.35;;;;;;;10.36;62.75;100677.59;5047334;28;20044;-38
2021/10/30 06:26:43;;;;;;;20.70;10.88;;;;;;;10.57;62.00;100683.06;5047718;28;20040;-38
2021/10/30 06:29:09;;;;;;;18.58;10.90;;;;;;;10.59;61.83;100682.88;5045125;28;20044;-38
2021/10/30 06:31:34;;;;;;;16.35;9.98;;;;;;;10.81;61.59;100675.84;5033565;28;20493;-37
2021/10/30 06:34:00;;;;;;;18.63;9.95;;;;;;;11.08;60.19;100671.72;5031211;28;20034;-38
2021/10/30 06:36:25;;;;;;;15.20;9.50;;;;;;;11.09;59.42;100677.88;5030929;28;20087;-38
2021/10/30 06:38:50;;;;;;;18.35;9.73;;;;;;;11.29;58.58;100691.44;5031329;28;20044;-39
2021/10/30 06:41:16;;;;;;;18.25;9.65;;;;;;;11.61;55.99;100684.06;5032070;28;20108;-38
2021/10/30 06:43:42;;;;;;;38.00;22.40;;;;;;;11.92;58.98;100697.19;5032003;28;20470;-37
2021/10/30 06:46:08;;;;;;;40.20;22.67;;;;;;;12.00;54.79;100698.91;5031964;28;20026;-37
2021/10/30 06:48:33;;;;;;;31.50;16.90;;;;;;;12.21;57.88;100700.75;5035839;28;20032;-37
2021/10/30 06:50:59;;;;;;;18.95;10.77;;;;;;;11.95;54.74;100691.44;5041889;28;20143;-38
2021/10/30 06:53:24;;;;;;;16.83;10.88;;;;;;;11.42;55.81;100688.97;5050834;28;20031;-38
2021/10/30 06:55:50;;;;;;;19.00;10.77;;;;;;;11.28;55.89;100687.97;5047900;28;20029;-38
2021/10/30 06:58:18;;;;;;;16.25;10.30;;;;;;;11.03;57.17;100684.78;5041501;28;20021;-38
2021/10/30 07:00:44;;;;;;;18.00;11.35;;;;;;;11.02;56.97;100692.94;5033220;28;20036;-38
2021/10/30 07:03:09;;;;;;;18.80;11.85;;;;;;;10.82;58.11;100690.81;5051042;28;20029;-37
2021/10/30 07:05:35;;;;;;;18.25;11.43;;;;;;;10.78;58.17;100697.50;5051157;28;20025;-38
2021/10/30 07:08:01;;;;;;;20.52;11.60;;;;;;;11.04;57.11;100696.25;5051576;28;20017;-37
2021/10/30 07:10:26;;;;;;;24.90;11.90;;;;;;;10.81;58.03;100691.81;5051373;28;20110;-38
2021/10/30 07:12:52;;;;;;;18.83;11.52;;;;;;;11.32;57.63;100697.25;5051176;28;20021;-38
2021/10/30 07:15:17;;;;;;;20.27;12.88;;;;;;;11.79;56.01;100705.00;5051782;28;20029;-38
2021/10/30 07:17:44;;;;;;;27.05;14.85;;;;;;;11.91;55.02;100703.50;5051317;28;20032;-38
2021/10/30 07:20:10;;;;;;;20.80;12.82;;;;;;;11.69;56.09;100699.94;5051067;28;20028;-38
2021/10/30 07:22:42;;;;;;;21.58;12.25;;;;;;;11.60;56.30;100701.91;5051452;28;20027;-37
2021/10/30 07:25:08;;;;;;;21.55;12.55;;;;;;;11.46;57.43;100703.59;5051328;28;20634;-38
2021/10/30 07:27:33;;;;;;;21.98;13.27;;;;;;;11.58;56.27;100700.44;5050944;28;20098;-39
2021/10/30 07:29:59;;;;;;;21.25;13.02;;;;;;;11.42;56.97;100691.63;5049855;28;20041;-51
2021/10/30 07:32:26;;;;;;;22.10;13.05;;;;;;;11.73;56.23;100691.41;5049787;28;20025;-52
2021/10/30 07:34:52;;;;;;;24.52;13.70;;;;;;;11.72;56.46;100688.91;5050071;28;20481;-48
2021/10/30 07:37:17;;;;;;;22.17;13.50;;;;;;;11.52;56.91;100696.69;5050240;28;20028;-48
2021/10/30 07:39:43;;;;;;;65.47;36.97;;;;;;;11.89;56.03;100697.50;5049605;28;20505;-49
2021/10/30 07:42:08;;;;;;;37.25;21.50;;;;;;;12.19;54.92;100690.25;5049478;28;20021;-50
2021/10/30 07:44:40;;;;;;;26.98;15.63;;;;;;;12.26;54.34;100696.50;5048659;28;20033;-48
2021/10/30 07:47:06;;;;;;;24.08;13.23;;;;;;;12.37;53.71;100687.13;5049768;28;20021;-49
2021/10/30 07:49:31;;;;;;;21.40;13.40;;;;;;;12.18;54.92;100693.94;5049953;28;20056;-48
2021/10/30 07:51:57;;;;;;;23.42;13.25;;;;;;;12.40;54.74;100685.94;5050021;28;20094;-49
2021/10/30 07:54:23;;;;;;;25.27;13.80;;;;;;;12.71;53.63;100696.22;5049656;28;20485;-49
2021/10/30 07:56:48;;;;;;;23.92;13.75;;;;;;;12.60;54.29;100675.41;5049348;28;20032;-51
2021/10/30 07:59:14;;;;;;;25.15;14.25;;;;;;;12.75;54.71;100686.81;5049875;28;20098;-49
2021/10/30 08:01:39;;;;;;;22.27;14.75;;;;;;;12.82;54.14;100684.19;5049484;28;20021;-48
2021/10/30 08:04:05;;;;;;;19.75;13.60;;;;;;;12.75;55.03;100686.00;5049703;28;20033;-49
2021/10/30 08:06:31;;;;;;;26.05;15.18;;;;;;;12.68;54.63;100688.63;5049413;28;20033;-53
2021/10/30 08:08:56;;;;;;;23.70;14.20;;;;;;;12.76;54.48;100682.31;5051632;28;20028;-51
2021/10/30 08:11:22;;;;;;;25.45;14.68;;;;;;;13.08;54.24;100678.19;5052459;28;20032;-49
2021/10/30 08:13:47;;;;;;;26.48;15.38;;;;;;;13.11;53.70;100680.47;5050066;28;20240;-38
2021/10/30 08:16:12;;;;;;;29.75;15.60;;;;;;;13.92;51.57;100674.44;5050157;28;20025;-36
2021/10/30 08:18:38;;;;;;;25.70;15.02;;;;;;;14.26;50.19;100686.84;5050220;28;20020;-39
2021/10/30 08:21:03;;;;;;;25.25;15.18;;;;;;;14.35;49.83;100674.06;5050293;28;20020;-39
2021/10/30 08:23:29;;;;;;;27.50;15.23;;;;;;;14.33;50.05;100684.16;5044878;28;20036;-38
2021/10/30 08:25:54;;;;;;;23.15;14.77;;;;;;;14.41;49.90;100683.13;5042425;28;20021;-37
2021/10/30 08:28:20;;;;;;;26.05;14.27;;;;;;;14.52;49.23;100679.00;5050330;28;20024;-37
2021/10/30 08:30:46;;;;;;;20.88;13.45;;;;;;;15.02;47.87;100682.06;5049595;28;20028;-38
2021/10/30 08:33:12;;;;;;;22.10;13.57;;;;;;;15.27;48.30;100678.69;5048853;28;20056;-38
2021/10/30 08:35:38;;;;;;;22.83;12.73;;;;;;;15.20;47.97;100673.34;5050026;28;20044;-38
2021/10/30 08:38:08;;;;;;;20.88;12.55;;;;;;;14.94;48.51;100668.88;5049649;28;20032;-38
2021/10/30 08:40:34;;;;;;;15.80;10.55;;;;;;;14.96;49.57;100669.50;5048580;28;20052;-39
2021/10/30 08:42:59;;;;;;;16.80;11.85;;;;;;;15.01;49.10;100656.28;5046854;28;20667;-39
2021/10/30 08:45:27;;;;;;;19.50;12.82;;;;;;;14.82;49.92;100663.34;5047979;28;20029;-39
2021/10/30 08:47:53;;;;;;;25.52;12.63;;;;;;;14.68;50.55;100662.56;5030066;28;20024;-38
2021/10/30 08:50:18;;;;;;;88.57;45.65;;;;;;;14.59;49.85;100655.75;5046425;28;20477;-38
2021/10/30 08:52:44;;;;;;;32.90;19.30;;;;;;;14.68;49.88;100665.22;5047659;28;20032;-39
2021/10/30 08:55:10;;;;;;;22.75;13.13;;;;;;;14.75;49.32;100670.56;5048253;28;20031;-38
2021/10/30 08:57:35;;;;;;;18.10;12.70;;;;;;;14.92;49.51;100660.22;5047667;28;20020;-38
2021/10/30 09:00:21;;;;;;;20.38;12.23;;;;;;;14.91;49.88;100666.59;5048801;28;20025;-40
2021/10/30 09:02:57;;;;;;;20.70;11.98;;;;;;;14.87;49.43;100666.22;5048769;28;20112;-38
2021/10/30 09:05:23;;;;;;;19.77;12.45;;;;;;;14.78;50.36;100657.59;5047991;28;20040;-39
2021/10/30 09:07:53;;;;;;;20.63;12.90;;;;;;;14.64;50.07;100661.28;5049341;28;20025;-38
2021/10/30 09:10:37;;;;;;;;;;;;;;;14.64;50.78;100631.84;5050218;28;20017;-39
2021/10/30 09:13:05;;;;;;;20.60;12.82;;;;;;;14.80;50.31;100652.84;5049013;28;19913;-38
2021/10/30 09:15:46;;;;;;;19.90;12.65;;;;;;;14.33;51.93;100654.69;5050016;28;20024;-39
2021/10/30 09:18:29;;;;;;;21.33;13.43;;;;;;;14.55;50.87;100652.63;5049289;28;20457;-38
2021/10/30 09:21:15;;;;;;;22.90;13.68;;;;;;;14.51;51.64;100648.72;5049076;28;20154;-38
2021/10/30 09:23:40;;;;;;;25.58;15.45;;;;;;;14.46;51.66;100649.34;5049012;28;20028;-38
2021/10/30 09:26:25;;;;;;;21.58;14.25;;;;;;;14.55;51.67;100641.09;5049378;28;20108;-38
2021/10/30 09:29:02;;;;;;;28.45;12.98;;;;;;;14.57;51.69;100644.44;5049131;28;20025;-38
2021/10/30 09:31:27;;;;;;;19.52;12.02;;;;;;;14.52;52.86;100638.84;5048907;28;20028;-39
2021/10/30 09:33:59;;;;;;;18.70;11.73;;;;;;;14.41;52.97;100633.09;5047610;28;20461;-38
2021/10/30 09:36:32;;;;;;;14.63;10.60;;;;;;;14.92;52.46;100630.75;5047414;28;20025;-40
2021/10/30 09:38:59;;;;;;;18.08;11.55;;;;;;;14.46;53.57;100621.75;5047731;28;20520;-37
2021/10/30 09:41:28;;;;;;;15.20;9.50;;;;;;;14.66;53.41;100622.56;5049490;28;20075;-37
2021/10/30 09:44:04;;;;;;;20.33;9.65;;;;;;;14.57;53.41;100618.47;5049321;28;20021;-38
2021/10/30 09:46:35;;;;;;;15.73;10.30;;;;;;;14.38;53.80;100598.69;5049240;28;20028;-37
2021/10/30 09:49:17;;;;;;;15.90;10.10;;;;;;;14.88;53.14;100611.59;5049043;28;20029;-38
2021/10/30 09:51:51;;;;;;;17.35;9.93;;;;;;;14.52;53.94;100612.06;5047777;28;20067;-38
2021/10/30 09:54:33;;;;;;;17.10;9.35;;;;;;;14.22;55.32;100610.66;5049427;28;20025;-39
2021/10/30 09:56:58;;;;;;;12.70;9.20;;;;;;;14.14;54.81;100602.81;5049364;28;20175;-38
2021/10/30 09:59:24;;;;;;;18.77;10.48;;;;;;;14.27;54.66;100596.63;5049050;28;20153;-39
2021/10/30 10:01:50;;;;;;;15.85;10.02;;;;;;;14.43;54.73;100595.38;5049152;28;20036;-39
2021/10/30 10:04:17;;;;;;;13.88;10.20;;;;;;;14.54;54.84;100592.06;5050132;28;20021;-39
2021/10/30 10:06:43;;;;;;;13.70;10.07;;;;;;;15.08;52.91;100584.72;5053078;28;20103;-37
2021/10/30 10:09:09;;;;;;;18.15;10.63;;;;;;;15.24;52.42;100576.19;5057209;28;20687;-38
2021/10/30 10:11:35;;;;;;;10.90;6.22;;;;;;;14.90;51.78;100577.38;5073141;28;20028;-39
2021/10/30 10:14:01;;;;;;;11.93;6.82;;;;;;;15.08;52.19;100576.69;5071626;28;20053;-40
2021/10/30 10:16:26;;;;;;;9.05;6.07;;;;;;;15.01;50.47;100567.84;5073302;28;20473;-39
2021/10/30 10:18:55;;;;;;;9.45;5.65;;;;;;;15.08;51.15;100554.41;5071601;28;20021;-39
2021/10/30 10:21:29;;;;;;;8.77;5.78;;;;;;;15.50;49.91;100576.25;5072737;28;20020;-40
2021/10/30 10:24:15;;;;;;;8.80;5.35;;;;;;;15.19;50.58;100564.47;5071696;28;20036;-39
2021/10/30 10:26:47;;;;;;;10.38;5.55;;;;;;;15.10;51.08;100563.91;5070740;28;20114;-38
2021/10/30 10:29:14;;;;;;;8.32;5.80;;;;;;;14.98;52.45;100562.91;5072265;28;20028;-38
2021/10/30 10:31:49;;;;;;;8.43;5.80;;;;;;;15.19;50.97;100557.25;5064969;28;20032;-38
2021/10/30 10:34:17;;;;;;;9.95;6.00;;;;;;;15.57;49.99;100559.09;5051275;28;20041;-39
2021/10/30 10:36:42;;;;;;;8.52;5.40;;;;;;;15.07;51.89;100553.59;5051725;28;20116;-39
2021/10/30 10:39:09;;;;;;;9.45;5.22;;;;;;;15.21;49.83;100551.66;5052077;28;20112;-38
2021/10/30 10:41:44;;;;;;;8.38;4.90;;;;;;;15.03;49.72;100549.69;5051563;28;20033;-42
2021/10/30 10:44:37;;;;;;;9.07;5.22;;;;;;;15.23;50.21;100537.03;5051582;28;20326;-38
2021/10/30 10:47:03;;;;;;;9.45;5.13;;;;;;;15.83;48.76;100535.81;5051566;28;20033;-38
2021/10/30 10:49:36;;;;;;;8.40;4.68;;;;;;;15.51;49.53;100541.16;5049894;28;20518;-39
2021/10/30 10:52:17;;;;;;;8.18;4.60;;;;;;;15.42;48.13;100540.63;5050385;28;20108;-39
2021/10/30 10:54:59;;;;;;;;;;;;;;;15.57;48.12;100540.31;5050206;28;20785;-50
2021/10/30 10:57:34;;;;;;;;;;;;;;;15.75;48.78;100534.22;5050532;28;19971;-51
2021/10/30 11:00:12;;;;;;;6.50;4.50;;;;;;;15.61;47.88;100530.81;5050033;28;19916;-51
2021/10/30 11:02:56;;;;;;;7.70;5.20;;;;;;;15.47;48.06;100533.78;5051199;28;20021;-51
2021/10/30 11:05:22;;;;;;;6.20;4.30;;;;;;;15.19;48.20;100522.41;5049789;28;20048;-48
2021/10/30 11:07:50;;;;;;;7.03;3.92;;;;;;;15.32;47.55;100521.47;5051302;28;20178;-50
2021/10/30 11:10:27;;;;;;;6.68;4.10;;;;;;;15.29;47.47;100518.41;5051365;28;20029;-52
2021/10/30 11:13:01;;;;;;;4.68;3.95;;;;;;;15.00;47.99;100512.59;5051194;28;20503;-48
2021/10/30 11:15:54;;;;;;;5.13;4.22;;;;;;;15.22;48.00;100511.22;5050764;28;20632;-50
2021/10/30 11:18:25;;;;;;;10.20;5.63;;;;;;;15.51;48.12;100513.53;5050849;28;20029;-50